首页
METAR-TAF:

METAR-TAF

机场 :

萨尔瓦多奥斯卡·阿努尔福·罗梅罗-伊-加尔达梅斯主教国际机场

萨尔瓦多, 萨尔瓦多

纬度: 13-26N, 经度: 089-03W, 海拔: 25米

当前天气观测

该预报发布于28分钟前的23:50 UTC
风速2节,风向多变
温度 27°C
湿度 70%
气压 1011 hPa
能见度10公里或以上
1500米以下无云,无积雨云

METAR: MSLP 092350Z VRB02KT CAVOK 27/21 Q1010 A2984 NOSIG

时间: 18:18 (00:18 UTC)

预报

该预报发布于2小时和53分钟前的21:25 UTC
预报有效从10日的 00点(UTC)到 10日的 24点(UTC)
风速2节,风向多变
能见度10公里或以上
散云层高于7000英尺
从 10日的 0500点(UTC)
风速5节,风向东转东北
能见度10公里或以上
1500米以下无云,无积雨云
短暂存在
从 10日的 18点(UTC)到 10日的 24点(UTC)
风速10节,风向西南
能见度10公里或以上
少量云层高于6000英尺

TAF: MSLP 092125Z 1000/1024 VRB02KT 9999 SCT070 TX34/1018Z TN23/1010Z FM100500 06005KT CAVOK TEMPO 1018/1024 23010KT 9999 FEW060

超过4000个机场的气象观测和天气预报(METAR&TAF报告)。

可查询的气象台以黄色和红色小点在地图上表示。

将鼠标移到小点上方,可查看气象台名称。

然后点击查看天气观测和预报。

如需切换地图:点击带黑十字的绿色按钮放大地图;点击带横线的绿色按钮缩小地图;或者点击绿色箭头查看邻近地区的地图。


METAR-TAF: